Terminal Aerodrome Forecast
Issued by NWS Sterling, VA

Current Version | Previous Version | Graphics & Text | Print | Product List | Glossary On
Versions: 1 2 3 4 5 6 7 8 9 10 11 12 13 14 15 16 17 18 19 20 21 22 23 24 25 26 27 28 29 30 31
000
FTUS41 KLWX 031717 AAC
TAFDCA
TAF AMD
KDCA 031717Z 0317/0412 18009KT 6SM -FZRAPL OVC050
     FM032000 17007KT 2SM BR OVC015
      TEMPO 0323/0401 2SM -RA BR OVC008
     FM040800 20008KT 2SM -RA OVC004=

USA.gov is the U.S. government's official web portal to all federal, state and local government web resources and services.